Time;durP1;ratioP1;P1;durP2;ratioP2;P2;SDS_P1;SDS_P2;PMS_P1;PMS_P2;Temp;Humidity;BMP_temperature;BMP_pressure;BME280_temperature;BME280_humidity;BME280_pressure;Samples;Min_cycle;Max_cycle;Signal;HPM_P1;HPM_P2
2022/01/02 00:00:14;;;;;;;16.02;6.68;;;11.70;99.90;;;11.19;100.00;101427.66;4161054;28;20562;-66
2022/01/02 00:02:16;;;;;;;12.85;7.30;;;11.60;99.90;;;11.21;100.00;101412.50;4170684;28;20117;-67
2022/01/02 00:04:23;;;;;;;17.50;7.43;;;11.70;99.90;;;11.16;100.00;101397.09;4153932;28;20041;-67
2022/01/02 00:06:27;;;;;;;19.23;8.20;;;11.70;99.90;;;11.05;100.00;101398.09;4153146;28;20042;-66
2022/01/02 00:08:39;;;;;;;11.85;6.78;;;11.70;99.90;;;11.17;100.00;101400.59;4163752;28;20029;-66
2022/01/02 00:10:59;;;;;;;13.38;7.53;;;11.70;99.90;;;11.05;100.00;101389.38;4154717;28;20137;-66
2022/01/02 00:13:01;;;;;;;10.73;6.00;;;11.70;99.90;;;11.04;100.00;101380.59;4161035;28;20096;-66
2022/01/02 00:15:06;;;;;;;18.60;8.20;;;11.70;99.90;;;11.03;100.00;101386.84;4170992;28;20116;-66
2022/01/02 00:17:08;;;;;;;10.05;7.28;;;11.60;99.90;;;10.96;100.00;101390.22;4153244;28;20118;-67
2022/01/02 00:19:28;;;;;;;11.57;7.18;;;11.60;99.90;;;10.97;100.00;101410.34;4165144;28;20025;-66
2022/01/02 00:21:33;;;;;;;15.40;8.32;;;11.60;99.90;;;10.98;100.00;101430.50;4157619;28;20025;-66
2022/01/02 00:23:59;;;;;;;14.43;8.32;;;11.70;99.90;;;11.06;100.00;101447.28;4155407;28;20179;-66
2022/01/02 00:26:05;;;;;;;11.65;7.63;;;11.70;99.90;;;11.18;100.00;101433.91;4162121;28;20500;-66
2022/01/02 00:28:07;;;;;;;12.88;7.72;;;11.60;99.90;;;11.03;100.00;101413.25;4158382;28;20026;-66
2022/01/02 00:30:08;;;;;;;12.77;7.10;;;11.60;99.90;;;11.07;100.00;101422.56;4168048;28;20025;-66
2022/01/02 00:32:11;;;;;;;15.43;6.88;;;11.60;99.90;;;11.04;100.00;101422.00;4170847;28;20056;-66
2022/01/02 00:34:12;;;;;;;12.43;6.20;;;11.60;99.90;;;11.11;100.00;101434.50;4161461;28;20033;-66
2022/01/02 00:36:13;;;;;;;18.48;7.60;;;11.60;99.90;;;11.11;100.00;101416.00;4165568;28;20048;-66
2022/01/02 00:38:22;;;;;;;20.10;8.00;;;11.70;99.90;;;11.06;100.00;101393.66;4170702;28;20026;-66
2022/01/02 00:40:23;;;;;;;13.07;6.25;;;11.70;99.90;;;10.99;100.00;101392.56;4163861;28;20029;-66
2022/01/02 00:42:41;;;;;;;11.93;5.97;;;11.70;99.90;;;10.99;100.00;101405.78;4153282;28;20026;-66
2022/01/02 00:45:00;;;;;;;16.08;6.75;;;11.60;99.90;;;10.95;100.00;101409.66;4152990;28;20591;-66
2022/01/02 00:47:31;;;;;;;16.23;7.35;;;11.60;99.90;;;11.01;100.00;101407.28;4153210;28;20505;-66
2022/01/02 00:49:45;;;;;;;12.80;6.30;;;11.70;99.90;;;11.11;100.00;101388.75;4166879;28;20559;-66
2022/01/02 00:52:08;;;;;;;17.38;6.18;;;11.70;99.90;;;11.04;100.00;101391.16;4169614;28;20374;-66
2022/01/02 00:54:14;;;;;;;15.77;6.35;;;11.70;99.90;;;11.17;100.00;101390.03;4157512;28;20053;-66
2022/01/02 00:56:19;;;;;;;12.35;6.00;;;11.70;99.90;;;11.32;100.00;101367.44;4169706;28;20519;-66
2022/01/02 00:58:23;;;;;;;14.68;5.68;;;11.80;99.90;;;11.23;100.00;101368.31;4162491;28;20113;-66
2022/01/02 01:00:26;;;;;;;16.83;7.93;;;11.80;99.90;;;11.19;100.00;101353.72;4163685;28;20022;-66
2022/01/02 01:02:54;;;;;;;17.75;7.38;;;11.70;99.90;;;11.25;100.00;101332.84;4168276;28;20485;-66
2022/01/02 01:04:58;;;;;;;16.05;6.82;;;11.80;99.90;;;11.16;100.00;101311.78;4170208;28;20499;-67
2022/01/02 01:07:05;;;;;;;10.07;6.50;;;11.80;99.90;;;11.16;100.00;101327.63;4157494;28;20026;-66
2022/01/02 01:09:06;;;;;;;21.73;7.88;;;11.80;99.90;;;11.15;100.00;101342.63;4168430;28;20317;-66
2022/01/02 01:11:08;;;;;;;18.33;8.13;;;11.70;99.90;;;11.22;100.00;101340.25;4163275;28;20049;-66
2022/01/02 01:13:10;;;;;;;14.00;7.10;;;11.70;99.90;;;11.22;100.00;101353.44;4152618;28;20034;-66
2022/01/02 01:15:11;;;;;;;14.27;6.80;;;11.70;99.90;;;11.14;100.00;101375.28;4165290;28;20053;-66
2022/01/02 01:17:14;;;;;;;15.40;6.82;;;11.70;99.90;;;11.08;100.00;101397.81;4168911;28;20029;-66
2022/01/02 01:19:15;;;;;;;15.27;6.70;;;11.70;99.90;;;11.18;100.00;101404.88;4169116;28;20074;-66
2022/01/02 01:21:17;;;;;;;14.55;6.50;;;11.70;99.90;;;11.14;100.00;101416.72;4161587;28;20034;-66
2022/01/02 01:23:18;;;;;;;14.50;6.18;;;11.70;99.90;;;11.10;100.00;101418.81;4157168;28;20022;-66
2022/01/02 01:25:21;;;;;;;17.15;7.93;;;11.70;99.90;;;11.23;100.00;101403.47;4153261;28;20080;-66
2022/01/02 01:27:22;;;;;;;16.00;6.80;;;11.70;99.90;;;11.28;100.00;101380.09;4153738;28;20033;-66
2022/01/02 01:29:23;;;;;;;20.92;5.93;;;11.70;99.90;;;11.29;100.00;101391.50;4161953;28;20044;-66
2022/01/02 01:31:23;;;;;;;15.82;6.35;;;11.80;99.90;;;11.35;100.00;101399.66;4168808;28;20032;-66
2022/01/02 01:33:24;;;;;;;17.92;5.88;;;11.80;99.90;;;11.25;100.00;101401.53;4162453;28;20022;-66
2022/01/02 01:35:25;;;;;;;17.40;5.63;;;11.80;99.90;;;11.31;100.00;101397.47;4159733;28;20022;-66
2022/01/02 01:37:26;;;;;;;17.80;5.30;;;11.80;99.90;;;11.27;100.00;101393.44;4152211;28;20457;-66
2022/01/02 01:39:27;;;;;;;18.02;5.28;;;11.80;99.90;;;11.33;100.00;101379.66;4168651;28;20037;-66
2022/01/02 01:41:34;;;;;;;14.57;5.15;;;11.90;99.90;;;11.37;100.00;101376.59;4168285;28;20024;-66
2022/01/02 01:43:51;;;;;;;17.35;4.60;;;11.90;99.90;;;11.44;100.00;101388.22;4168756;28;20033;-66
2022/01/02 01:45:53;;;;;;;24.40;5.32;;;11.90;99.90;;;11.33;100.00;101390.22;4169808;28;20113;-66
2022/01/02 01:48:02;;;;;;;21.98;6.68;;;11.90;99.90;;;11.34;100.00;101386.63;4152852;28;20117;-66
2022/01/02 01:50:04;;;;;;;18.13;6.50;;;11.90;99.90;;;11.37;100.00;101388.97;4160057;28;20025;-66
2022/01/02 01:52:05;;;;;;;17.13;4.90;;;12.00;99.90;;;11.37;100.00;101387.16;4158331;28;20091;-66
2022/01/02 01:54:06;;;;;;;19.95;5.85;;;11.90;99.90;;;11.40;100.00;101378.13;4165262;28;20575;-66
2022/01/02 01:56:06;;;;;;;12.68;4.60;;;11.90;99.90;;;11.45;100.00;101383.78;4154933;28;20029;-66
2022/01/02 01:58:08;;;;;;;17.33;5.63;;;12.00;99.90;;;11.46;100.00;101378.38;4167114;28;20080;-66
2022/01/02 02:00:14;;;;;;;23.23;5.25;;;12.00;99.90;;;11.36;100.00;101379.38;4169611;28;20053;-66
2022/01/02 02:02:16;;;;;;;21.58;6.53;;;12.00;99.90;;;11.41;100.00;101377.94;4168439;28;20025;-66
2022/01/02 02:04:17;;;;;;;18.67;4.88;;;12.00;99.90;;;11.41;100.00;101375.31;4152614;28;20081;-66
2022/01/02 02:06:18;;;;;;;22.38;7.13;;;12.00;99.90;;;11.38;100.00;101385.34;4158176;28;20069;-66
2022/01/02 02:08:24;;;;;;;21.15;5.68;;;12.00;99.90;;;11.49;100.00;101372.78;4169513;28;20075;-66
2022/01/02 02:10:34;;;;;;;15.23;5.32;;;12.00;99.90;;;11.58;100.00;101376.34;4155426;28;20033;-67
2022/01/02 02:12:36;;;;;;;20.30;4.60;;;12.10;99.90;;;11.71;100.00;101376.84;4153286;28;20037;-66
2022/01/02 02:14:38;;;;;;;15.43;4.50;;;12.10;99.90;;;11.68;100.00;101371.84;4157654;28;20026;-66
2022/01/02 02:16:38;;;;;;;14.43;4.95;;;12.10;99.90;;;11.72;100.00;101373.25;4168221;28;20056;-66
2022/01/02 02:18:39;;;;;;;12.73;5.38;;;12.20;99.90;;;11.79;100.00;101368.19;4168050;28;20034;-66
2022/01/02 02:20:40;;;;;;;24.05;5.95;;;12.20;99.90;;;11.71;100.00;101373.41;4168231;28;20025;-66
2022/01/02 02:22:46;;;;;;;16.20;4.07;;;12.30;99.90;;;11.61;100.00;101366.34;4161276;28;20030;-66
2022/01/02 02:24:47;;;;;;;18.67;5.07;;;12.30;99.90;;;11.70;100.00;101369.94;4152648;28;20109;-66
2022/01/02 02:26:48;;;;;;;30.85;5.57;;;12.30;99.90;;;11.70;100.00;101362.00;4152786;28;20088;-66
2022/01/02 02:28:49;;;;;;;22.70;5.20;;;12.20;99.90;;;11.53;100.00;101360.94;4153027;28;20072;-66
2022/01/02 02:30:50;;;;;;;14.38;5.03;;;12.30;99.90;;;11.54;100.00;101364.41;4151592;28;20073;-66
2022/01/02 02:32:56;;;;;;;21.33;5.63;;;12.20;99.90;;;11.50;100.00;101363.03;4152744;28;20037;-66
2022/01/02 02:34:57;;;;;;;16.55;5.00;;;12.20;99.90;;;11.47;100.00;101374.72;4167752;28;20033;-66
2022/01/02 02:36:58;;;;;;;18.23;5.80;;;12.20;99.90;;;11.50;100.00;101377.06;4155972;28;20029;-66
2022/01/02 02:38:59;;;;;;;16.55;5.25;;;12.10;99.90;;;11.63;100.00;101374.09;4160410;28;20018;-66
2022/01/02 02:41:00;;;;;;;16.48;5.32;;;12.10;99.90;;;11.68;100.00;101377.13;4152414;28;20030;-66
2022/01/02 02:43:54;;;;;;;15.20;5.10;;;12.30;99.90;;;11.76;100.00;101387.00;4165165;28;20468;-66
2022/01/02 02:50:06;;;;;;;18.65;5.82;;;12.40;99.90;;;11.86;100.00;101370.09;4157894;28;20063;-66
2022/01/02 02:52:16;;;;;;;20.02;4.90;;;12.40;99.90;;;11.87;100.00;101379.69;4159016;28;20044;-66
2022/01/02 02:54:23;;;;;;;13.40;4.28;;;12.40;99.90;;;11.97;100.00;101371.72;4151097;28;20121;-66
2022/01/02 02:56:28;;;;;;;17.67;4.95;;;12.50;99.90;;;11.98;100.00;101362.78;4151169;28;20049;-66
2022/01/02 03:00:32;;;;;;;13.60;5.13;;;12.50;99.90;;;11.97;100.00;101367.25;4152587;28;20045;-66
2022/01/02 03:02:33;;;;;;;21.98;5.72;;;12.50;99.90;;;12.01;100.00;101355.38;4166050;28;20493;-66
2022/01/02 03:04:34;;;;;;;15.85;4.70;;;12.70;99.90;;;12.09;100.00;101360.78;4167622;28;20504;-66
2022/01/02 03:06:35;;;;;;;18.65;4.78;;;12.60;99.90;;;12.10;100.00;101365.06;4160374;28;20054;-66
2022/01/02 03:08:37;;;;;;;14.93;6.13;;;12.70;99.90;;;12.05;100.00;101375.25;4152325;28;20088;-66
2022/01/02 03:10:38;;;;;;;15.65;5.07;;;12.70;99.90;;;12.09;100.00;101371.34;4165343;28;20037;-66
2022/01/02 03:12:39;;;;;;;18.10;6.55;;;12.70;99.90;;;12.16;100.00;101382.97;4167498;28;20519;-66
2022/01/02 03:14:40;;;;;;;16.70;5.00;;;12.80;99.90;;;12.17;100.00;101384.63;4160998;28;20029;-66
2022/01/02 03:16:41;;;;;;;16.75;4.85;;;12.80;99.90;;;12.34;100.00;101390.06;4152277;28;20105;-66
2022/01/02 03:18:43;;;;;;;19.65;4.80;;;12.90;99.90;;;12.33;100.00;101388.41;4164882;28;20021;-66
2022/01/02 03:20:44;;;;;;;14.90;4.63;;;12.90;99.90;;;12.20;100.00;101379.06;4167440;28;20416;-66
2022/01/02 03:22:45;;;;;;;18.25;5.28;;;12.90;99.90;;;12.20;100.00;101379.06;4161147;28;20041;-66
2022/01/02 03:24:49;;;;;;;12.48;5.00;;;12.80;99.90;;;12.30;100.00;101383.44;4160639;28;20030;-66
2022/01/02 03:26:50;;;;;;;15.85;4.63;;;12.90;99.90;;;12.22;100.00;101386.81;4167207;28;20056;-65
2022/01/02 03:28:51;;;;;;;20.33;4.75;;;12.90;99.90;;;12.35;100.00;101391.75;4167342;28;20026;-66
2022/01/02 03:30:52;;;;;;;14.00;4.85;;;12.90;99.90;;;12.32;100.00;101397.34;4161167;28;20065;-65
2022/01/02 03:32:53;;;;;;;12.88;4.35;;;13.00;99.90;;;12.29;100.00;101397.63;4161385;28;20029;-66
2022/01/02 03:34:54;;;;;;;14.38;4.95;;;13.00;99.90;;;12.31;100.00;101401.78;4154630;28;20489;-66
2022/01/02 03:36:54;;;;;;;13.13;5.22;;;13.00;99.90;;;12.34;100.00;101395.34;4154404;28;20031;-66
2022/01/02 03:38:55;;;;;;;11.98;4.40;;;13.00;99.90;;;12.46;100.00;101407.38;4161641;28;20072;-66
2022/01/02 03:40:57;;;;;;;16.08;4.10;;;13.10;99.90;;;12.41;100.00;101409.66;4151789;28;20044;-66
2022/01/02 03:42:58;;;;;;;18.05;4.53;;;13.10;99.90;;;12.51;100.00;101411.25;4151916;28;20036;-66
2022/01/02 03:44:59;;;;;;;17.50;5.22;;;13.10;99.90;;;12.32;100.00;101407.91;4150957;28;20466;-65
2022/01/02 03:47:00;;;;;;;14.52;4.00;;;13.10;99.90;;;12.34;100.00;101412.06;4158303;28;20045;-65
2022/01/02 03:49:00;;;;;;;21.25;5.60;;;13.20;99.90;;;12.32;100.00;101414.03;4150729;28;20520;-65
2022/01/02 03:51:01;;;;;;;14.25;4.57;;;13.10;99.90;;;12.36;100.00;101414.56;4167077;28;20067;-66
2022/01/02 03:53:04;;;;;;;16.00;4.25;;;13.20;99.90;;;12.37;100.00;101430.28;4152283;28;20076;-66
2022/01/02 03:55:06;;;;;;;16.65;3.83;;;13.10;99.90;;;12.37;100.00;101426.81;4156450;28;20075;-65
2022/01/02 03:57:07;;;;;;;21.85;4.55;;;13.20;99.90;;;12.34;100.00;101432.41;4158766;28;20442;-66
2022/01/02 03:59:08;;;;;;;12.93;3.72;;;13.20;99.90;;;12.31;100.00;101427.41;4150621;28;20101;-66
2022/01/02 04:01:09;;;;;;;14.32;4.05;;;13.10;99.90;;;12.32;100.00;101421.97;4155337;28;20058;-66
2022/01/02 04:03:10;;;;;;;19.50;4.22;;;13.10;99.90;;;12.37;100.00;101432.94;4168210;28;20033;-65
2022/01/02 04:05:13;;;;;;;18.33;4.40;;;13.10;99.90;;;12.27;100.00;101426.06;4157032;28;20520;-66
2022/01/02 04:07:14;;;;;;;15.20;3.90;;;13.10;99.90;;;12.29;100.00;101424.91;4150541;28;20054;-66
2022/01/02 04:09:15;;;;;;;19.63;4.72;;;13.10;99.90;;;12.29;100.00;101424.09;4155215;28;20030;-65
2022/01/02 04:11:16;;;;;;;21.63;4.60;;;13.10;99.90;;;12.25;100.00;101420.06;4167872;28;20033;-66
2022/01/02 04:13:18;;;;;;;15.90;4.28;;;13.00;99.90;;;12.31;100.00;101416.81;4168055;28;20393;-65
2022/01/02 04:15:19;;;;;;;13.48;4.18;;;13.00;99.90;;;12.25;100.00;101412.97;4153661;28;20052;-65
2022/01/02 04:17:20;;;;;;;18.25;3.80;;;13.10;99.90;;;12.21;100.00;101416.91;4150630;28;20468;-65
2022/01/02 04:19:21;;;;;;;13.35;4.28;;;13.00;99.90;;;12.12;100.00;101421.28;4157931;28;20029;-65
2022/01/02 04:21:22;;;;;;;24.55;4.80;;;13.00;99.90;;;12.05;100.00;101425.50;4167970;28;20021;-66
2022/01/02 04:23:22;;;;;;;17.50;4.22;;;12.90;99.90;;;12.08;100.00;101416.44;4155337;28;20053;-66
2022/01/02 04:25:23;;;;;;;22.20;5.20;;;12.90;99.90;;;12.11;100.00;101424.91;4151392;28;20108;-66
2022/01/02 04:27:24;;;;;;;17.45;4.68;;;12.90;99.90;;;12.17;100.00;101411.09;4156159;28;20061;-65
2022/01/02 04:29:25;;;;;;;22.73;4.68;;;12.90;99.90;;;12.21;100.00;101420.38;4166810;28;20025;-66
2022/01/02 04:31:26;;;;;;;14.40;4.20;;;12.90;99.90;;;12.18;100.00;101423.31;4166754;28;20034;-65
2022/01/02 04:33:27;;;;;;;21.15;4.28;;;12.90;99.90;;;12.15;100.00;101421.00;4152719;28;20575;-65
2022/01/02 04:35:28;;;;;;;20.02;5.97;;;12.90;99.90;;;12.19;100.00;101424.16;4155518;28;20026;-65
2022/01/02 04:37:29;;;;;;;23.88;4.75;;;12.90;99.90;;;12.11;100.00;101421.44;4160954;28;20097;-65
2022/01/02 04:39:32;;;;;;;17.60;5.18;;;12.90;99.90;;;12.16;100.00;101420.00;4148099;28;20126;-66
2022/01/02 04:41:32;;;;;;;18.17;4.60;;;12.90;99.90;;;12.15;100.00;101423.63;4152984;28;20079;-66
2022/01/02 04:43:34;;;;;;;24.65;6.60;;;12.90;99.90;;;12.14;100.00;101427.25;4166231;28;20033;-65
2022/01/02 04:45:35;;;;;;;24.13;5.90;;;12.90;99.90;;;12.18;100.00;101420.66;4154543;28;20024;-66
2022/01/02 04:47:36;;;;;;;14.95;4.90;;;12.90;99.90;;;12.13;100.00;101430.88;4147736;28;20092;-65
2022/01/02 04:49:37;;;;;;;20.27;4.40;;;12.90;99.90;;;12.20;100.00;101436.41;4168372;28;20455;-65
2022/01/02 04:51:38;;;;;;;18.05;5.60;;;12.90;99.90;;;12.21;100.00;101416.91;4165711;28;20053;-65
2022/01/02 04:53:46;;;;;;;19.35;4.63;;;12.90;99.90;;;12.19;100.00;101427.63;4161263;28;20443;-65
2022/01/02 04:55:48;;;;;;;19.05;5.25;;;12.90;99.90;;;12.19;100.00;101424.97;4170293;28;20021;-66
2022/01/02 04:57:49;;;;;;;21.00;5.68;;;12.90;99.90;;;12.30;100.00;101431.06;4167785;28;20014;-66
2022/01/02 04:59:50;;;;;;;22.40;5.10;;;13.00;99.90;;;12.13;100.00;101422.94;4154288;28;20040;-65
2022/01/02 05:01:51;;;;;;;26.08;4.40;;;12.90;99.90;;;12.09;100.00;101432.16;4152595;28;20022;-66
2022/01/02 05:03:52;;;;;;;19.63;5.57;;;12.90;99.90;;;12.10;100.00;101440.91;4154096;28;20559;-66
2022/01/02 05:05:53;;;;;;;29.65;5.78;;;12.90;99.90;;;12.11;100.00;101442.59;4152503;28;20176;-65
2022/01/02 05:07:54;;;;;;;30.05;6.05;;;12.90;99.90;;;12.07;100.00;101446.50;4154061;28;20041;-65
2022/01/02 05:09:55;;;;;;;20.35;5.10;;;12.90;99.90;;;12.05;100.00;101449.31;4161891;28;20064;-66
2022/01/02 05:11:56;;;;;;;20.25;4.43;;;12.80;99.90;;;12.05;100.00;101444.00;4169124;28;20052;-66
2022/01/02 05:13:57;;;;;;;20.95;4.60;;;12.80;99.90;;;12.04;100.00;101436.22;4154356;28;20033;-65
2022/01/02 05:15:58;;;;;;;26.10;4.80;;;12.90;99.90;;;11.99;100.00;101439.31;4142245;28;20030;-65
2022/01/02 05:17:58;;;;;;;20.65;5.43;;;12.80;99.90;;;11.99;100.00;101435.84;4161258;28;20022;-66
2022/01/02 05:20:00;;;;;;;20.23;5.97;;;12.80;99.90;;;12.11;100.00;101442.59;4164933;28;20033;-65
2022/01/02 05:22:01;;;;;;;27.58;7.38;;;12.80;99.90;;;11.99;100.00;101433.19;4160162;28;20097;-65
2022/01/02 05:24:02;;;;;;;22.60;5.53;;;12.80;99.90;;;12.06;100.00;101437.75;4158556;28;20033;-65
2022/01/02 05:26:05;;;;;;;24.02;6.72;;;12.80;99.90;;;12.00;100.00;101438.34;4160887;28;20029;-65
2022/01/02 05:28:05;;;;;;;26.40;4.88;;;12.80;99.90;;;11.99;100.00;101436.69;4165062;28;20441;-66
2022/01/02 05:30:08;;;;;;;29.20;6.70;;;12.70;99.90;;;12.08;100.00;101432.31;4168882;28;20079;-65
2022/01/02 05:32:09;;;;;;;29.23;5.47;;;12.80;99.90;;;12.06;100.00;101429.81;4168856;28;20037;-65
2022/01/02 05:34:10;;;;;;;25.25;5.43;;;12.80;99.90;;;12.00;100.00;101432.22;4160584;28;20038;-66
2022/01/02 05:36:11;;;;;;;22.00;5.53;;;12.70;99.90;;;11.87;100.00;101435.22;4153547;28;20037;-65
2022/01/02 05:38:12;;;;;;;23.73;6.25;;;12.80;99.90;;;11.95;100.00;101445.88;4153366;28;20025;-65
2022/01/02 05:40:13;;;;;;;23.95;5.68;;;12.70;99.90;;;11.95;100.00;101445.88;4153339;28;20438;-66
2022/01/02 05:42:13;;;;;;;30.17;6.35;;;12.70;99.90;;;11.91;100.00;101447.16;4152220;28;20121;-66
2022/01/02 05:44:15;;;;;;;22.17;5.55;;;12.70;99.90;;;11.93;100.00;101452.28;4164263;28;20021;-66
2022/01/02 05:46:16;;;;;;;28.10;5.65;;;12.70;99.90;;;11.96;100.00;101463.41;4168377;28;20369;-65
2022/01/02 05:48:17;;;;;;;26.48;5.22;;;12.70;99.90;;;11.93;100.00;101465.50;4169479;28;20021;-65
2022/01/02 05:50:18;;;;;;;22.65;4.75;;;12.70;99.90;;;12.06;100.00;101477.44;4169761;28;20037;-66
2022/01/02 05:52:19;;;;;;;23.95;5.38;;;12.70;99.90;;;12.02;100.00;101477.84;4169571;28;20027;-66
2022/01/02 05:54:20;;;;;;;32.08;5.50;;;12.80;99.90;;;11.99;100.00;101476.34;4169546;28;20465;-65
2022/01/02 05:56:21;;;;;;;27.38;5.40;;;12.80;99.90;;;12.02;100.00;101481.34;4168108;28;20026;-65
2022/01/02 05:58:22;;;;;;;20.98;3.95;;;12.70;99.90;;;11.99;100.00;101480.78;4161159;28;20032;-65
2022/01/02 06:00:23;;;;;;;28.10;5.65;;;12.80;99.90;;;11.92;100.00;101480.53;4153226;28;20042;-65
2022/01/02 06:02:24;;;;;;;27.50;5.10;;;12.70;99.90;;;11.96;100.00;101491.66;4165489;28;20036;-66
2022/01/02 06:04:27;;;;;;;25.95;4.95;;;12.70;99.90;;;11.91;100.00;101480.69;4165993;28;20017;-66
2022/01/02 06:06:28;;;;;;;28.08;6.55;;;12.70;99.90;;;12.08;100.00;101479.91;4158760;28;20452;-65
2022/01/02 06:08:29;;;;;;;23.05;5.03;;;12.70;99.90;;;12.05;100.00;101486.31;4168269;28;20022;-66
2022/01/02 06:10:29;;;;;;;26.10;5.10;;;12.70;99.90;;;12.06;100.00;101482.72;4167902;28;20083;-65
2022/01/02 06:12:31;;;;;;;23.25;4.97;;;12.70;99.90;;;12.10;100.00;101476.13;4165129;28;20037;-66
2022/01/02 06:14:32;;;;;;;18.27;4.85;;;12.70;99.90;;;12.12;100.00;101486.56;4151758;28;20029;-66
2022/01/02 06:16:33;;;;;;;29.67;5.28;;;12.70;99.90;;;12.09;100.00;101486.88;4152962;28;20029;-65
2022/01/02 06:18:34;;;;;;;28.23;6.13;;;12.80;99.90;;;12.05;100.00;101498.72;4161717;28;20064;-65
2022/01/02 06:20:35;;;;;;;28.48;5.55;;;12.80;99.90;;;11.99;100.00;101481.63;4162360;28;20025;-66
2022/01/02 06:22:36;;;;;;;26.60;5.30;;;12.80;99.90;;;11.95;100.00;101489.97;4159716;28;20068;-65
2022/01/02 06:24:37;;;;;;;20.10;4.93;;;12.80;99.90;;;12.06;100.00;101485.34;4152611;28;20033;-66
2022/01/02 06:26:38;;;;;;;25.10;6.65;;;12.70;99.90;;;12.05;100.00;101491.63;4152829;28;20097;-66
2022/01/02 06:28:39;;;;;;;18.80;4.50;;;12.70;99.90;;;11.98;100.00;101487.88;4152874;28;20037;-65
2022/01/02 06:30:40;;;;;;;29.60;6.65;;;12.70;99.90;;;11.98;100.00;101479.09;4157545;28;20222;-65
2022/01/02 06:32:41;;;;;;;27.65;6.30;;;12.80;99.90;;;11.97;100.00;101485.41;4159573;28;20022;-66
2022/01/02 06:34:44;;;;;;;20.88;5.65;;;12.70;99.90;;;11.98;100.00;101485.25;4152685;28;20108;-65
2022/01/02 06:36:45;;;;;;;27.85;6.13;;;12.70;99.90;;;12.03;100.00;101490.94;4152561;28;20014;-65
2022/01/02 06:38:46;;;;;;;32.80;5.45;;;12.70;99.90;;;12.01;100.00;101484.09;4157476;28;20033;-66
2022/01/02 06:40:47;;;;;;;21.83;4.78;;;12.70;99.90;;;12.03;100.00;101483.00;4159560;28;20056;-66
2022/01/02 06:42:49;;;;;;;20.73;5.50;;;12.70;99.90;;;12.00;100.00;101480.66;4163848;28;20099;-65
2022/01/02 06:44:50;;;;;;;27.58;6.53;;;12.70;99.90;;;12.03;100.00;101483.00;4151840;28;20036;-66
2022/01/02 06:46:51;;;;;;;23.50;6.18;;;12.70;99.90;;;12.01;100.00;101482.31;4151229;28;20114;-65
2022/01/02 06:48:52;;;;;;;28.98;6.35;;;12.70;99.90;;;11.99;100.00;101491.38;4160084;28;20029;-66
2022/01/02 06:50:52;;;;;;;21.13;5.22;;;12.70;99.90;;;12.04;100.00;101492.59;4155438;28;20053;-65
2022/01/02 06:52:53;;;;;;;26.33;4.65;;;12.70;99.90;;;12.05;100.00;101475.75;4152202;28;20065;-66
2022/01/02 06:54:54;;;;;;;23.20;5.10;;;12.70;99.90;;;12.02;100.00;101483.97;4152201;28;20037;-66
2022/01/02 06:56:55;;;;;;;26.00;3.97;;;12.70;99.90;;;11.97;100.00;101477.47;4159798;28;20032;-65
2022/01/02 06:58:56;;;;;;;19.42;4.85;;;12.70;99.90;;;11.93;100.00;101478.72;4167262;28;20068;-65
2022/01/02 07:00:57;;;;;;;18.67;4.05;;;12.70;99.90;;;12.02;100.00;101477.84;4167881;28;20075;-65
2022/01/02 07:02:58;;;;;;;22.95;4.90;;;12.80;99.90;;;12.01;100.00;101477.00;4162234;28;20117;-66
2022/01/02 07:04:59;;;;;;;21.15;4.55;;;12.70;99.90;;;12.04;100.00;101482.00;4151152;28;20072;-66
2022/01/02 07:07:00;;;;;;;26.27;4.68;;;12.80;99.90;;;12.07;100.00;101492.28;4162610;28;20088;-65
2022/01/02 07:09:02;;;;;;;17.33;4.85;;;12.70;99.90;;;12.07;100.00;101488.81;4152062;28;20026;-66
2022/01/02 07:11:02;;;;;;;19.58;4.53;;;12.70;99.90;;;12.06;100.00;101487.16;4150803;28;20154;-66
2022/01/02 07:13:03;;;;;;;19.13;3.78;;;12.80;99.90;;;12.04;100.00;101495.22;4160691;28;20041;-65
2022/01/02 07:15:09;;;;;;;20.95;4.10;;;12.80;99.90;;;12.13;100.00;101493.50;4155620;28;20026;-66
2022/01/02 07:17:09;;;;;;;15.27;4.47;;;12.80;99.90;;;12.11;100.00;101488.38;4151055;28;20026;-66
2022/01/02 07:19:10;;;;;;;14.98;3.47;;;12.80;99.90;;;12.11;100.00;101490.19;4151034;28;20073;-65
2022/01/02 07:21:11;;;;;;;20.85;4.50;;;12.80;99.90;;;12.14;100.00;101496.03;4152607;28;20029;-66
2022/01/02 07:23:12;;;;;;;16.90;4.45;;;12.80;99.90;;;12.05;100.00;101490.78;4156116;28;20072;-66
2022/01/02 07:25:13;;;;;;;20.08;3.95;;;12.80;99.90;;;12.06;100.00;101501.22;4165865;28;20063;-66
2022/01/02 07:27:14;;;;;;;17.17;3.42;;;12.80;99.90;;;12.18;100.00;101505.31;4167197;28;20037;-66
2022/01/02 07:29:16;;;;;;;21.35;4.65;;;12.90;99.90;;;12.15;100.00;101508.28;4167174;28;20033;-65
2022/01/02 07:31:17;;;;;;;18.52;4.93;;;12.90;99.90;;;12.15;100.00;101512.72;4167177;28;20029;-65
2022/01/02 07:33:17;;;;;;;20.90;4.32;;;12.90;99.90;;;12.09;100.00;101503.56;4135496;28;20438;-66
2022/01/02 07:35:18;;;;;;;20.95;4.43;;;12.90;99.90;;;12.06;100.00;101509.16;4150847;28;20034;-66
2022/01/02 07:37:19;;;;;;;19.75;4.32;;;12.90;99.90;;;12.04;100.00;101526.13;4152041;28;20033;-66
2022/01/02 07:39:20;;;;;;;21.90;4.97;;;12.80;99.90;;;12.03;100.00;101513.91;4151949;28;20026;-65
2022/01/02 07:41:21;;;;;;;19.17;3.95;;;12.80;99.90;;;11.96;100.00;101518.94;4151561;28;20022;-65
2022/01/02 07:43:22;;;;;;;21.85;4.43;;;12.80;99.90;;;11.98;100.00;101530.19;4151975;28;20547;-65
2022/01/02 07:45:24;;;;;;;20.75;4.75;;;12.80;99.90;;;11.81;100.00;101523.03;4158484;28;20036;-65
2022/01/02 07:47:25;;;;;;;21.33;5.05;;;12.70;99.90;;;11.87;100.00;101519.81;4157261;28;20034;-65
2022/01/02 07:49:26;;;;;;;16.92;4.03;;;12.70;99.90;;;11.91;100.00;101520.34;4164869;28;20025;-65
2022/01/02 07:51:27;;;;;;;25.05;4.22;;;12.70;99.90;;;11.90;100.00;101535.38;4164396;28;20068;-66
2022/01/02 07:53:28;;;;;;;26.88;3.75;;;12.70;99.90;;;11.88;100.00;101526.78;4151840;28;20033;-66
2022/01/02 07:55:28;;;;;;;23.02;4.00;;;12.70;99.90;;;11.80;100.00;101537.22;4151577;28;20030;-66
2022/01/02 07:57:30;;;;;;;29.08;4.63;;;12.60;99.90;;;11.87;100.00;101524.25;4151667;28;20022;-65
2022/01/02 07:59:30;;;;;;;18.58;4.45;;;12.60;99.90;;;11.85;100.00;101536.78;4150843;28;20517;-65
2022/01/02 08:01:31;;;;;;;21.50;5.28;;;12.60;99.90;;;11.85;100.00;101548.22;4157397;28;20049;-66
2022/01/02 08:03:32;;;;;;;18.45;4.03;;;12.70;99.90;;;11.96;100.00;101540.09;4156899;28;20034;-66
2022/01/02 08:05:33;;;;;;;26.38;3.72;;;12.60;99.90;;;11.93;100.00;101544.81;4151820;28;20457;-66
2022/01/02 08:07:38;;;;;;;25.50;5.20;;;12.70;99.90;;;11.82;100.00;101543.22;4137551;28;20080;-66
2022/01/02 08:09:39;;;;;;;20.90;4.55;;;12.60;99.90;;;11.85;100.00;101542.09;4166771;28;20098;-66
2022/01/02 08:11:40;;;;;;;25.77;4.78;;;12.60;99.90;;;11.75;100.00;101549.19;4159346;28;20030;-66
2022/01/02 08:13:42;;;;;;;25.38;5.43;;;12.60;99.90;;;11.85;100.00;101545.56;4166743;28;20037;-66
2022/01/02 08:15:43;;;;;;;30.02;5.22;;;12.60;99.90;;;11.76;100.00;101549.06;4153620;28;20026;-66
2022/01/02 08:17:44;;;;;;;17.92;3.60;;;12.60;99.90;;;11.86;100.00;101543.72;4179664;28;20059;-65
2022/01/02 08:19:45;;;;;;;22.80;5.88;;;12.60;99.90;;;11.86;100.00;101549.00;4163617;28;20073;-65
2022/01/02 08:21:46;;;;;;;30.08;6.05;;;12.60;99.90;;;11.91;100.00;101544.16;4163041;28;20563;-66
2022/01/02 08:23:47;;;;;;;32.08;5.32;;;12.60;99.90;;;11.89;100.00;101557.50;4154800;28;20041;-65
2022/01/02 08:25:49;;;;;;;32.40;6.20;;;12.60;99.90;;;11.92;100.00;101549.28;4154426;28;20037;-66